createdAt,value
2017-07-21T00:00:11.529Z,15.41
2017-07-21T00:00:23.942Z,15.43
2017-07-21T00:00:36.890Z,15.51
2017-07-21T00:00:50.356Z,15.45
2017-07-21T00:01:03.294Z,15.43
2017-07-21T00:01:16.802Z,15.43
2017-07-21T00:01:30.287Z,15.4
2017-07-21T00:01:43.769Z,15.51
2017-07-21T00:01:57.183Z,15.41
2017-07-21T00:02:10.137Z,15.44
2017-07-21T00:02:23.077Z,15.45
2017-07-21T00:02:36.513Z,15.38
2017-07-21T00:02:50.049Z,15.41
2017-07-21T00:03:03.501Z,15.47
2017-07-21T00:03:16.995Z,15.44
2017-07-21T00:03:30.425Z,15.43
2017-07-21T00:03:43.953Z,15.47
2017-07-21T00:03:57.435Z,15.41
2017-07-21T00:04:10.901Z,15.49
2017-07-21T00:04:24.358Z,15.47
2017-07-21T00:04:37.777Z,15.41
2017-07-21T00:04:50.714Z,15.47
2017-07-21T00:05:04.173Z,15.38
2017-07-21T00:05:17.104Z,15.31
2017-07-21T00:05:30.561Z,15.27
2017-07-21T00:05:44.090Z,15.31
2017-07-21T00:05:57.511Z,15.33
2017-07-21T00:06:11.009Z,15.3
2017-07-21T00:06:24.376Z,15.33
2017-07-21T00:06:37.854Z,15.31
2017-07-21T00:06:51.374Z,15.31
2017-07-21T00:07:04.781Z,15.4
2017-07-21T00:07:18.177Z,15.33
2017-07-21T00:07:31.658Z,15.34
2017-07-21T00:07:45.109Z,15.37
2017-07-21T00:07:58.841Z,15.3
2017-07-21T00:08:11.762Z,15.37
2017-07-21T00:08:24.159Z,15.34
2017-07-21T00:08:37.612Z,15.3
2017-07-21T00:08:51.099Z,15.34
2017-07-21T00:09:04.487Z,15.35
2017-07-21T00:09:18.003Z,15.34
2017-07-21T00:09:30.417Z,15.38
2017-07-21T00:09:43.944Z,15.33
2017-07-21T00:09:56.908Z,15.34
2017-07-21T00:10:09.806Z,15.4
2017-07-21T00:10:23.222Z,15.31
2017-07-21T00:10:36.640Z,15.34
2017-07-21T00:10:49.560Z,15.4
2017-07-21T00:11:02.532Z,15.37
2017-07-21T00:11:16.000Z,15.31
2017-07-21T00:11:28.931Z,15.3
2017-07-21T00:11:41.868Z,15.35
2017-07-21T00:11:54.829Z,15.34
2017-07-21T00:12:07.794Z,15.34
2017-07-21T00:12:21.252Z,15.33
2017-07-21T00:12:34.133Z,15.34
2017-07-21T00:12:47.561Z,15.34
2017-07-21T00:13:01.206Z,15.3
2017-07-21T00:13:14.684Z,15.33
2017-07-21T00:13:27.624Z,15.3
2017-07-21T00:13:41.098Z,15.35
2017-07-21T00:13:54.591Z,15.3
2017-07-21T00:14:07.522Z,15.34
2017-07-21T00:14:20.960Z,15.3
2017-07-21T00:14:34.417Z,15.26
2017-07-21T00:14:47.860Z,15.31
2017-07-21T00:15:01.272Z,15.37
2017-07-21T00:15:14.746Z,15.33
2017-07-21T00:15:28.234Z,15.34
2017-07-21T00:15:41.735Z,15.3
2017-07-21T00:15:54.109Z,15.25
2017-07-21T00:16:07.560Z,15.3
2017-07-21T00:16:21.058Z,15.26
2017-07-21T00:16:33.985Z,15.3
2017-07-21T00:16:47.452Z,15.33
2017-07-21T00:17:00.355Z,15.27
2017-07-21T00:17:12.755Z,15.34
2017-07-21T00:17:26.223Z,15.26
2017-07-21T00:17:39.111Z,15.22
2017-07-21T00:17:52.596Z,15.23
2017-07-21T00:18:05.710Z,15.25
2017-07-21T00:18:18.705Z,15.27
2017-07-21T00:18:32.219Z,15.25
2017-07-21T00:18:45.179Z,15.26
2017-07-21T00:18:57.568Z,15.22
2017-07-21T00:19:10.490Z,15.27
2017-07-21T00:19:23.894Z,15.27
2017-07-21T00:19:36.263Z,15.3
2017-07-21T00:19:49.262Z,15.23
2017-07-21T00:20:02.734Z,15.19
2017-07-21T00:20:16.236Z,15.25
2017-07-21T00:20:29.770Z,15.3
2017-07-21T00:20:43.221Z,15.26
2017-07-21T00:20:56.674Z,15.3
2017-07-21T00:21:10.207Z,15.26
2017-07-21T00:21:23.605Z,15.27
2017-07-21T00:21:37.065Z,15.27
2017-07-21T00:21:50.482Z,15.27
2017-07-21T00:22:03.868Z,15.2
2017-07-21T00:22:16.277Z,15.26
2017-07-21T00:22:29.719Z,15.27
2017-07-21T00:22:43.234Z,15.19
2017-07-21T00:22:56.725Z,15.18
2017-07-21T00:23:09.616Z,15.26
2017-07-21T00:23:23.090Z,15.19
2017-07-21T00:23:35.507Z,15.25
2017-07-21T00:23:48.435Z,15.26
2017-07-21T00:24:01.866Z,15.23
2017-07-21T00:24:15.382Z,15.25
2017-07-21T00:24:28.842Z,15.22
2017-07-21T00:24:42.325Z,15.27
2017-07-21T00:24:55.792Z,15.27
2017-07-21T00:25:09.214Z,15.26
2017-07-21T00:25:22.139Z,15.22
2017-07-21T00:25:35.608Z,15.26
2017-07-21T00:25:48.486Z,15.27
2017-07-21T00:26:01.966Z,15.27
2017-07-21T00:26:14.939Z,15.33
2017-07-21T00:26:28.367Z,15.3
2017-07-21T00:26:41.804Z,15.35
2017-07-21T00:26:55.311Z,15.26
2017-07-21T00:27:07.703Z,15.2
2017-07-21T00:27:21.113Z,15.26
2017-07-21T00:27:34.504Z,15.34
2017-07-21T00:27:47.975Z,15.31
2017-07-21T00:28:01.481Z,15.3
2017-07-21T00:28:14.957Z,15.31
2017-07-21T00:28:28.379Z,15.27
2017-07-21T00:28:41.818Z,15.35
2017-07-21T00:28:54.801Z,15.25
2017-07-21T00:29:07.771Z,15.31
2017-07-21T00:29:21.302Z,15.31
2017-07-21T00:29:34.766Z,15.27
2017-07-21T00:29:48.229Z,15.23
2017-07-21T00:30:01.709Z,15.26
2017-07-21T00:30:14.587Z,15.33
2017-07-21T00:30:27.486Z,15.26
2017-07-21T00:30:40.888Z,15.33
2017-07-21T00:30:54.366Z,15.31
2017-07-21T00:31:07.786Z,15.25
2017-07-21T00:31:19.870Z,15.22
2017-07-21T00:31:33.305Z,15.22
2017-07-21T00:31:46.792Z,15.22
2017-07-21T00:32:00.286Z,15.23
2017-07-21T00:32:13.781Z,15.23
2017-07-21T00:32:27.190Z,15.27
2017-07-21T00:32:40.676Z,15.3
2017-07-21T00:32:54.160Z,15.22
2017-07-21T00:33:07.127Z,15.18
2017-07-21T00:33:20.047Z,15.16
2017-07-21T00:33:33.451Z,15.16
2017-07-21T00:33:46.899Z,15.18
2017-07-21T00:34:00.398Z,15.18
2017-07-21T00:34:13.926Z,15.16
2017-07-21T00:34:27.390Z,15.18
2017-07-21T00:34:40.309Z,15.16
2017-07-21T00:34:53.177Z,15.12
2017-07-21T00:35:06.688Z,15.1
2017-07-21T00:35:19.577Z,15.12
2017-07-21T00:35:31.979Z,15.08
2017-07-21T00:35:45.464Z,15.13
2017-07-21T00:35:58.445Z,15.07
2017-07-21T00:36:11.899Z,15.02
2017-07-21T00:36:25.346Z,15.1
2017-07-21T00:36:37.728Z,15.07
2017-07-21T00:36:51.161Z,15.1
2017-07-21T00:37:04.692Z,15
2017-07-21T00:37:18.207Z,15.07
2017-07-21T00:37:31.643Z,15.04
2017-07-21T00:37:45.052Z,14.98
2017-07-21T00:37:58.530Z,14.97
2017-07-21T00:38:11.933Z,14.94
2017-07-21T00:38:25.367Z,14.97
2017-07-21T00:38:37.743Z,15
2017-07-21T00:38:51.207Z,15
2017-07-21T00:39:04.119Z,15.02
2017-07-21T00:39:16.988Z,15.04
2017-07-21T00:39:29.912Z,15
2017-07-21T00:39:43.379Z,15.04
2017-07-21T00:39:57.074Z,14.94
2017-07-21T00:40:10.532Z,15.08
2017-07-21T00:40:23.930Z,15.08
2017-07-21T00:40:37.395Z,15.01
2017-07-21T00:40:50.947Z,14.97
2017-07-21T00:41:04.451Z,14.94
2017-07-21T00:41:17.849Z,15.04
2017-07-21T00:41:31.231Z,15.08
2017-07-21T00:41:44.672Z,15.05
2017-07-21T00:41:58.100Z,15.05
2017-07-21T00:42:10.526Z,15
2017-07-21T00:42:23.984Z,15.05
2017-07-21T00:42:36.368Z,14.97
2017-07-21T00:42:49.336Z,15.07
2017-07-21T00:43:03.672Z,15.02
2017-07-21T00:43:17.069Z,15.04
2017-07-21T00:43:30.025Z,15
2017-07-21T00:43:43.477Z,15.04
2017-07-21T00:43:56.902Z,15.01
2017-07-21T00:44:10.359Z,15
2017-07-21T00:44:23.825Z,15
2017-07-21T00:44:36.793Z,15.08
2017-07-21T00:44:50.285Z,15.04
2017-07-21T00:45:03.711Z,15.16
2017-07-21T00:45:17.187Z,15.19
2017-07-21T00:45:30.683Z,15.19
2017-07-21T00:45:43.604Z,15.27
2017-07-21T00:45:57.096Z,15.22
2017-07-21T00:46:10.082Z,15.25
2017-07-21T00:46:22.452Z,15.31
2017-07-21T00:46:35.316Z,15.19
2017-07-21T00:46:48.790Z,15.26
2017-07-21T00:47:01.199Z,15.23
2017-07-21T00:47:14.674Z,15.31
2017-07-21T00:47:27.602Z,15.26
2017-07-21T00:47:41.034Z,15.26
2017-07-21T00:47:54.551Z,15.33
2017-07-21T00:48:08.036Z,15.31
2017-07-21T00:48:20.926Z,15.34
2017-07-21T00:48:33.830Z,15.31
2017-07-21T00:48:47.319Z,15.31
2017-07-21T00:49:00.738Z,15.31
2017-07-21T00:49:14.181Z,15.31
2017-07-21T00:49:27.648Z,15.33
2017-07-21T00:49:41.103Z,15.34
2017-07-21T00:49:54.591Z,15.34
2017-07-21T00:50:07.521Z,15.27
2017-07-21T00:50:20.482Z,15.26
2017-07-21T00:50:33.401Z,15.27
2017-07-21T00:50:46.873Z,15.27
2017-07-21T00:51:00.322Z,15.25
2017-07-21T00:51:13.707Z,15.25
2017-07-21T00:51:26.596Z,15.34
2017-07-21T00:51:40.033Z,15.26
2017-07-21T00:51:53.488Z,15.27
2017-07-21T00:52:06.940Z,15.19
2017-07-21T00:52:20.322Z,15.27
2017-07-21T00:52:33.182Z,15.26
2017-07-21T00:52:46.613Z,15.16
2017-07-21T00:53:00.088Z,15.16
2017-07-21T00:53:13.632Z,15.16
2017-07-21T00:53:26.527Z,15.22
2017-07-21T00:53:38.893Z,15.18
2017-07-21T00:53:52.261Z,15.13
2017-07-21T00:54:05.392Z,15.22
2017-07-21T00:54:18.824Z,15.18
2017-07-21T00:54:31.737Z,15.07
2017-07-21T00:54:45.239Z,15.2
2017-07-21T00:54:58.120Z,15.13
2017-07-21T00:55:11.059Z,15.16
2017-07-21T00:55:23.981Z,15.16
2017-07-21T00:55:37.414Z,15.08
2017-07-21T00:55:50.854Z,15.05
2017-07-21T00:56:04.338Z,15.13
2017-07-21T00:56:17.808Z,15.1
2017-07-21T00:56:31.284Z,15.07
2017-07-21T00:56:44.788Z,15.12
2017-07-21T00:56:58.243Z,15.07
2017-07-21T00:57:11.688Z,15.12
2017-07-21T00:57:24.550Z,15.08
2017-07-21T00:57:38.000Z,15.04
2017-07-21T00:57:51.529Z,15.07
2017-07-21T00:58:04.481Z,15.15
2017-07-21T00:58:18.592Z,15.08
2017-07-21T00:58:31.544Z,15.08
2017-07-21T00:58:44.936Z,15.07
2017-07-21T00:58:58.473Z,15.05
2017-07-21T00:59:11.454Z,15.07
2017-07-21T00:59:24.374Z,15.08
2017-07-21T00:59:37.275Z,15.18
2017-07-21T00:59:50.712Z,15.15
2017-07-21T01:00:04.145Z,15.12
2017-07-21T01:00:17.614Z,15.12
2017-07-21T01:00:31.095Z,15.16
2017-07-21T01:00:44.015Z,15.15
2017-07-21T01:00:57.469Z,15.22
2017-07-21T01:01:10.929Z,15.16
2017-07-21T01:01:24.391Z,15.26
2017-07-21T01:01:37.829Z,15.23
2017-07-21T01:01:50.753Z,15.25
2017-07-21T01:02:04.216Z,15.27
2017-07-21T01:02:17.115Z,15.3
2017-07-21T01:02:30.090Z,15.37
2017-07-21T01:02:42.999Z,15.35
2017-07-21T01:02:56.415Z,15.43
2017-07-21T01:03:09.464Z,15.45
2017-07-21T01:03:21.806Z,15.45
2017-07-21T01:03:35.253Z,15.52
2017-07-21T01:03:48.220Z,15.47
2017-07-21T01:04:01.705Z,15.44
2017-07-21T01:04:15.096Z,15.47
2017-07-21T01:04:28.522Z,15.55
2017-07-21T01:04:40.935Z,15.44
2017-07-21T01:04:54.393Z,15.52
2017-07-21T01:05:07.853Z,15.49
2017-07-21T01:05:20.783Z,15.47
2017-07-21T01:05:33.649Z,15.41
2017-07-21T01:05:47.103Z,15.47
2017-07-21T01:06:00.588Z,15.43
2017-07-21T01:06:14.080Z,15.43
2017-07-21T01:06:27.544Z,15.44
2017-07-21T01:06:40.971Z,15.47
2017-07-21T01:06:54.384Z,15.45
2017-07-21T01:07:07.299Z,15.47
2017-07-21T01:07:20.192Z,15.47
2017-07-21T01:07:33.645Z,15.44
2017-07-21T01:07:47.136Z,15.41
2017-07-21T01:08:00.089Z,15.49
2017-07-21T01:08:13.540Z,15.44
2017-07-21T01:08:26.992Z,15.41
2017-07-21T01:08:40.445Z,15.43
2017-07-21T01:08:53.872Z,15.49
2017-07-21T01:09:07.329Z,15.4
2017-07-21T01:09:20.225Z,15.44
2017-07-21T01:09:33.196Z,15.34
2017-07-21T01:09:46.599Z,15.41
2017-07-21T01:10:00.081Z,15.4
2017-07-21T01:10:11.975Z,15.37
2017-07-21T01:10:24.964Z,15.33
2017-07-21T01:10:37.934Z,15.31
2017-07-21T01:10:51.431Z,15.34
2017-07-21T01:11:04.395Z,15.33
2017-07-21T01:11:17.247Z,15.34
2017-07-21T01:11:30.717Z,15.34
2017-07-21T01:11:43.636Z,15.4
2017-07-21T01:11:57.085Z,15.31
2017-07-21T01:12:09.498Z,15.33
2017-07-21T01:12:23.012Z,15.26
2017-07-21T01:12:36.515Z,15.23
2017-07-21T01:12:49.915Z,15.27
2017-07-21T01:13:02.257Z,15.31
2017-07-21T01:13:16.311Z,15.3
2017-07-21T01:13:29.767Z,15.26
2017-07-21T01:13:43.203Z,15.27
2017-07-21T01:13:56.600Z,15.27
2017-07-21T01:14:09.014Z,15.26
2017-07-21T01:14:21.899Z,15.22
2017-07-21T01:14:35.346Z,15.27
2017-07-21T01:14:48.269Z,15.3
2017-07-21T01:15:01.675Z,15.31
2017-07-21T01:15:15.145Z,15.27
2017-07-21T01:15:28.080Z,15.3
2017-07-21T01:15:41.550Z,15.33
2017-07-21T01:15:55.039Z,15.27
2017-07-21T01:16:07.403Z,15.27
2017-07-21T01:16:20.900Z,15.3
2017-07-21T01:16:33.841Z,15.3
2017-07-21T01:16:47.278Z,15.33
2017-07-21T01:17:00.779Z,15.23
2017-07-21T01:17:14.188Z,15.37
2017-07-21T01:17:27.649Z,15.26
2017-07-21T01:17:41.141Z,15.37
2017-07-21T01:17:54.633Z,15.3
2017-07-21T01:18:08.156Z,15.34
2017-07-21T01:18:21.150Z,15.35
2017-07-21T01:18:34.674Z,15.33
2017-07-21T01:18:48.142Z,15.37
2017-07-21T01:19:01.577Z,15.27
2017-07-21T01:19:14.532Z,15.37
2017-07-21T01:19:27.427Z,15.33
2017-07-21T01:19:40.280Z,15.33
2017-07-21T01:19:53.719Z,15.34
2017-07-21T01:20:06.604Z,15.33
2017-07-21T01:20:19.557Z,15.31
2017-07-21T01:20:32.490Z,15.38
2017-07-21T01:20:45.947Z,15.38
2017-07-21T01:20:59.400Z,15.38
2017-07-21T01:21:12.281Z,15.31
2017-07-21T01:21:25.759Z,15.31
2017-07-21T01:21:39.187Z,15.27
2017-07-21T01:21:52.643Z,15.34
2017-07-21T01:22:05.541Z,15.34
2017-07-21T01:22:19.013Z,15.4
2017-07-21T01:22:32.491Z,15.31
2017-07-21T01:22:45.919Z,15.37
2017-07-21T01:22:59.390Z,15.3
2017-07-21T01:23:12.328Z,15.3
2017-07-21T01:23:25.796Z,15.34
2017-07-21T01:23:39.238Z,15.31
2017-07-21T01:23:52.660Z,15.33
2017-07-21T01:24:05.581Z,15.3
2017-07-21T01:24:18.487Z,15.34
2017-07-21T01:24:31.898Z,15.34
2017-07-21T01:24:45.382Z,15.38
2017-07-21T01:24:59.067Z,15.37
2017-07-21T01:25:12.548Z,15.31
2017-07-21T01:25:26.007Z,15.3
2017-07-21T01:25:39.458Z,15.3
2017-07-21T01:25:52.345Z,15.3
2017-07-21T01:26:05.237Z,15.31
2017-07-21T01:26:17.124Z,15.26
2017-07-21T01:26:30.536Z,15.38
2017-07-21T01:26:43.977Z,15.4
2017-07-21T01:26:57.357Z,15.31
2017-07-21T01:27:10.278Z,15.34
2017-07-21T01:27:23.722Z,15.38
2017-07-21T01:27:36.668Z,15.3
2017-07-21T01:27:49.600Z,15.4
2017-07-21T01:28:02.526Z,15.34
2017-07-21T01:28:16.004Z,15.3
2017-07-21T01:28:30.171Z,15.44
2017-07-21T01:28:43.588Z,15.49
2017-07-21T01:28:56.561Z,15.49
2017-07-21T01:29:09.990Z,15.45
2017-07-21T01:29:23.443Z,15.45
2017-07-21T01:29:36.324Z,15.45
2017-07-21T01:29:48.689Z,15.51
2017-07-21T01:30:02.143Z,15.53
2017-07-21T01:30:15.612Z,15.47
2017-07-21T01:30:28.051Z,15.47
2017-07-21T01:30:40.973Z,15.49
2017-07-21T01:30:54.446Z,15.47
2017-07-21T01:31:07.907Z,15.51
2017-07-21T01:31:21.351Z,15.41
2017-07-21T01:31:34.869Z,15.41
2017-07-21T01:31:47.774Z,15.51
2017-07-21T01:32:01.151Z,15.51
2017-07-21T01:32:14.670Z,15.43
2017-07-21T01:32:28.092Z,15.4
2017-07-21T01:32:40.472Z,15.47
2017-07-21T01:32:53.867Z,15.38
2017-07-21T01:33:07.305Z,15.44
2017-07-21T01:33:20.876Z,15.44
2017-07-21T01:33:33.773Z,15.4
2017-07-21T01:33:47.254Z,15.37
2017-07-21T01:34:00.752Z,15.37
2017-07-21T01:34:14.257Z,15.35
2017-07-21T01:34:27.195Z,15.37
2017-07-21T01:34:40.116Z,15.38
2017-07-21T01:34:53.526Z,15.37
2017-07-21T01:35:06.954Z,15.37
2017-07-21T01:35:20.464Z,15.35
2017-07-21T01:35:33.408Z,15.31
2017-07-21T01:35:46.837Z,15.33
2017-07-21T01:35:59.803Z,15.33
2017-07-21T01:36:13.276Z,15.3
2017-07-21T01:36:26.242Z,15.37
2017-07-21T01:36:39.657Z,15.31
2017-07-21T01:36:52.585Z,15.27
2017-07-21T01:37:06.014Z,15.33
2017-07-21T01:37:19.466Z,15.34
2017-07-21T01:37:32.970Z,15.33
2017-07-21T01:37:46.411Z,15.33
2017-07-21T01:37:59.328Z,15.35
2017-07-21T01:38:12.241Z,15.33
2017-07-21T01:38:25.926Z,15.34
2017-07-21T01:38:39.318Z,15.34
2017-07-21T01:38:52.771Z,15.37
2017-07-21T01:39:06.217Z,15.33
2017-07-21T01:39:19.095Z,15.37
2017-07-21T01:39:32.573Z,15.34
2017-07-21T01:39:45.527Z,15.34
2017-07-21T01:39:58.965Z,15.26
2017-07-21T01:40:12.437Z,15.31
2017-07-21T01:40:25.938Z,15.26
2017-07-21T01:40:38.878Z,15.33
2017-07-21T01:40:52.282Z,15.3
2017-07-21T01:41:05.752Z,15.27
2017-07-21T01:41:19.179Z,15.33
2017-07-21T01:41:32.093Z,15.27
2017-07-21T01:41:45.001Z,15.3
2017-07-21T01:41:58.458Z,15.23
2017-07-21T01:42:11.942Z,15.31
2017-07-21T01:42:25.371Z,15.27
2017-07-21T01:42:38.787Z,15.31
2017-07-21T01:42:52.210Z,15.3
2017-07-21T01:43:05.708Z,15.3
2017-07-21T01:43:19.142Z,15.3
2017-07-21T01:43:33.450Z,15.33
2017-07-21T01:43:46.338Z,15.34
2017-07-21T01:43:59.750Z,15.31
2017-07-21T01:44:13.173Z,15.27
2017-07-21T01:44:26.660Z,15.33
2017-07-21T01:44:38.553Z,15.34
2017-07-21T01:44:52.009Z,15.35
2017-07-21T01:45:05.462Z,15.34
2017-07-21T01:45:18.980Z,15.33
2017-07-21T01:45:32.441Z,15.34
2017-07-21T01:45:45.941Z,15.34
2017-07-21T01:45:59.388Z,15.27
2017-07-21T01:46:12.856Z,15.31
2017-07-21T01:46:25.723Z,15.33
2017-07-21T01:46:39.181Z,15.25
2017-07-21T01:46:52.696Z,15.33
2017-07-21T01:47:06.130Z,15.31
2017-07-21T01:47:19.610Z,15.34
2017-07-21T01:47:32.541Z,15.31
2017-07-21T01:47:46.015Z,15.25
2017-07-21T01:47:59.438Z,15.19
2017-07-21T01:48:12.956Z,15.25
2017-07-21T01:48:26.430Z,15.31
2017-07-21T01:48:39.380Z,15.19
2017-07-21T01:48:52.818Z,15.27
2017-07-21T01:49:06.332Z,15.33
2017-07-21T01:49:19.784Z,15.23
2017-07-21T01:49:32.738Z,15.31
2017-07-21T01:49:46.196Z,15.19
2017-07-21T01:49:59.108Z,15.31
2017-07-21T01:50:12.533Z,15.25
2017-07-21T01:50:26.034Z,15.3
2017-07-21T01:50:39.467Z,15.3
2017-07-21T01:50:52.912Z,15.23
2017-07-21T01:51:06.366Z,15.19
2017-07-21T01:51:19.825Z,15.26
2017-07-21T01:51:32.787Z,15.18
2017-07-21T01:51:45.687Z,15.22
2017-07-21T01:51:59.064Z,15.19
2017-07-21T01:52:12.050Z,15.27
2017-07-21T01:52:24.982Z,15.3
2017-07-21T01:52:37.883Z,15.16
2017-07-21T01:52:51.395Z,15.27
2017-07-21T01:53:04.326Z,15.18
2017-07-21T01:53:17.289Z,15.2
2017-07-21T01:53:30.756Z,15.18
2017-07-21T01:53:44.222Z,15.16
2017-07-21T01:53:57.644Z,15.26
2017-07-21T01:54:11.132Z,15.31
2017-07-21T01:54:24.575Z,15.19
2017-07-21T01:54:38.022Z,15.27
2017-07-21T01:54:51.461Z,15.16
2017-07-21T01:55:04.915Z,15.15
2017-07-21T01:55:17.833Z,15.18
2017-07-21T01:55:31.279Z,15.19
2017-07-21T01:55:44.696Z,15.3
2017-07-21T01:55:58.147Z,15.26
2017-07-21T01:56:11.013Z,15.22
2017-07-21T01:56:24.458Z,15.27
2017-07-21T01:56:37.941Z,15.27
2017-07-21T01:56:51.389Z,15.25
2017-07-21T01:57:04.880Z,15.31
2017-07-21T01:57:18.345Z,15.31
2017-07-21T01:57:31.742Z,15.23
2017-07-21T01:57:44.635Z,15.31
2017-07-21T01:57:57.598Z,15.23
2017-07-21T01:58:11.003Z,15.27
2017-07-21T01:58:24.425Z,15.25
2017-07-21T01:58:38.743Z,15.23
2017-07-21T01:58:51.637Z,15.23
2017-07-21T01:59:05.116Z,15.27
2017-07-21T01:59:18.592Z,15.25
2017-07-21T01:59:32.061Z,15.26
2017-07-21T01:59:45.478Z,15.25
2017-07-21T01:59:58.373Z,15.26
2017-07-21T02:00:11.847Z,15.26
2017-07-21T02:00:25.327Z,15.26
2017-07-21T02:00:38.243Z,15.3
2017-07-21T02:00:51.736Z,15.3
2017-07-21T02:01:05.183Z,15.35
2017-07-21T02:01:18.581Z,15.26
2017-07-21T02:01:31.989Z,15.35
2017-07-21T02:01:45.403Z,15.3
2017-07-21T02:01:58.844Z,15.3
2017-07-21T02:02:12.326Z,15.34
2017-07-21T02:02:25.877Z,15.31
2017-07-21T02:02:39.304Z,15.25
2017-07-21T02:02:52.733Z,15.31
2017-07-21T02:03:05.666Z,15.3
2017-07-21T02:03:19.114Z,15.25
2017-07-21T02:03:32.165Z,15.3
2017-07-21T02:03:45.566Z,15.3
2017-07-21T02:03:59.047Z,15.25
2017-07-21T02:04:12.469Z,15.27
2017-07-21T02:04:25.923Z,15.27
2017-07-21T02:04:39.344Z,15.31
2017-07-21T02:04:52.754Z,15.35
2017-07-21T02:05:05.705Z,15.26
2017-07-21T02:05:19.120Z,15.26
2017-07-21T02:05:32.555Z,15.27
2017-07-21T02:05:45.993Z,15.27
2017-07-21T02:05:59.474Z,15.22
2017-07-21T02:06:12.354Z,15.33
2017-07-21T02:06:25.796Z,15.35
2017-07-21T02:06:38.755Z,15.3
2017-07-21T02:06:52.157Z,15.3
2017-07-21T02:07:04.546Z,15.27
2017-07-21T02:07:17.972Z,15.34
2017-07-21T02:07:31.412Z,15.35
2017-07-21T02:07:44.813Z,15.35
2017-07-21T02:07:58.337Z,15.26
2017-07-21T02:08:11.766Z,15.26
2017-07-21T02:08:25.176Z,15.22
2017-07-21T02:08:38.594Z,15.3
2017-07-21T02:08:51.464Z,15.26
2017-07-21T02:09:04.431Z,15.3
2017-07-21T02:09:17.832Z,15.3
2017-07-21T02:09:31.257Z,15.27
2017-07-21T02:09:44.678Z,15.23
2017-07-21T02:09:57.629Z,15.25
2017-07-21T02:10:11.084Z,15.31
2017-07-21T02:10:24.487Z,15.31
2017-07-21T02:10:37.957Z,15.35
2017-07-21T02:10:50.830Z,15.26
2017-07-21T02:11:04.309Z,15.35
2017-07-21T02:11:17.276Z,15.27
2017-07-21T02:11:30.197Z,15.33
2017-07-21T02:11:43.622Z,15.33
2017-07-21T02:11:56.046Z,15.27
2017-07-21T02:12:09.037Z,15.33
2017-07-21T02:12:22.510Z,15.34
2017-07-21T02:12:35.429Z,15.33
2017-07-21T02:12:48.821Z,15.31
2017-07-21T02:13:02.217Z,15.43
2017-07-21T02:13:15.134Z,15.43
2017-07-21T02:13:28.577Z,15.43
2017-07-21T02:13:42.371Z,15.47
2017-07-21T02:13:55.800Z,15.44
2017-07-21T02:14:08.713Z,15.47
2017-07-21T02:14:22.211Z,15.43
2017-07-21T02:14:34.579Z,15.41
2017-07-21T02:14:47.990Z,15.43
2017-07-21T02:15:01.459Z,15.45
2017-07-21T02:15:14.881Z,15.47
2017-07-21T02:15:27.790Z,15.51
2017-07-21T02:15:40.707Z,15.41
2017-07-21T02:15:53.587Z,15.41
2017-07-21T02:16:07.030Z,15.44
2017-07-21T02:16:20.525Z,15.47
2017-07-21T02:16:33.985Z,15.47
2017-07-21T02:16:47.403Z,15.43
2017-07-21T02:17:00.369Z,15.4
2017-07-21T02:17:13.240Z,15.43
2017-07-21T02:17:26.667Z,15.49
2017-07-21T02:17:40.147Z,15.44
2017-07-21T02:17:53.590Z,15.45
2017-07-21T02:18:07.076Z,15.41
2017-07-21T02:18:20.483Z,15.44
2017-07-21T02:18:33.896Z,15.41
2017-07-21T02:18:47.357Z,15.41
2017-07-21T02:19:00.804Z,15.41
2017-07-21T02:19:14.285Z,15.35
2017-07-21T02:19:27.177Z,15.3
2017-07-21T02:19:40.706Z,15.35
2017-07-21T02:19:54.233Z,15.35
2017-07-21T02:20:07.673Z,15.3
2017-07-21T02:20:20.107Z,15.37
2017-07-21T02:20:33.590Z,15.3
2017-07-21T02:20:47.062Z,15.38
2017-07-21T02:21:00.526Z,15.33
2017-07-21T02:21:14.011Z,15.26
2017-07-21T02:21:27.439Z,15.3
2017-07-21T02:21:40.335Z,15.34
2017-07-21T02:21:53.256Z,15.34
2017-07-21T02:22:06.193Z,15.26
2017-07-21T02:22:19.659Z,15.33
2017-07-21T02:22:33.109Z,15.34
2017-07-21T02:22:46.507Z,15.3
2017-07-21T02:22:59.948Z,15.27
2017-07-21T02:23:12.308Z,15.34
2017-07-21T02:23:25.266Z,15.26
2017-07-21T02:23:38.713Z,15.25
2017-07-21T02:23:52.182Z,15.23
2017-07-21T02:24:04.621Z,15.31
2017-07-21T02:24:17.570Z,15.31
2017-07-21T02:24:30.477Z,15.31
2017-07-21T02:24:43.415Z,15.3
2017-07-21T02:24:56.921Z,15.27
2017-07-21T02:25:10.392Z,15.22
2017-07-21T02:25:23.345Z,15.33
2017-07-21T02:25:36.763Z,15.23
2017-07-21T02:25:50.237Z,15.31
2017-07-21T02:26:03.739Z,15.22
2017-07-21T02:26:17.188Z,15.2
2017-07-21T02:26:30.692Z,15.19
2017-07-21T02:26:44.067Z,15.2
2017-07-21T02:26:57.000Z,15.23
2017-07-21T02:27:10.392Z,15.23
2017-07-21T02:27:23.858Z,15.23
2017-07-21T02:27:37.323Z,15.26
2017-07-21T02:27:50.776Z,15.26
2017-07-21T02:28:04.223Z,15.2
2017-07-21T02:28:17.148Z,15.16
2017-07-21T02:28:30.622Z,15.16
2017-07-21T02:28:44.748Z,15.16
2017-07-21T02:28:58.220Z,15.18
2017-07-21T02:29:11.719Z,15.22
2017-07-21T02:29:25.185Z,15.18
2017-07-21T02:29:38.101Z,15.16
2017-07-21T02:29:51.535Z,15.15
2017-07-21T02:30:04.486Z,15.19
2017-07-21T02:30:17.986Z,15.13
2017-07-21T02:30:31.458Z,15.18
2017-07-21T02:30:44.385Z,15.16
2017-07-21T02:30:57.293Z,15.19
2017-07-21T02:31:10.766Z,15.16
2017-07-21T02:31:23.737Z,15.16
2017-07-21T02:31:37.172Z,15.1
2017-07-21T02:31:50.620Z,15.13
2017-07-21T02:32:04.120Z,15.16
2017-07-21T02:32:17.599Z,15.08
2017-07-21T02:32:31.022Z,15.2
2017-07-21T02:32:44.451Z,15.13
2017-07-21T02:32:57.924Z,15.13
2017-07-21T02:33:10.842Z,15.12
2017-07-21T02:33:24.243Z,15.16
2017-07-21T02:33:37.547Z,15.13
2017-07-21T02:33:50.604Z,15.12
2017-07-21T02:34:04.073Z,15.12
2017-07-21T02:34:17.486Z,15.05
2017-07-21T02:34:31.041Z,15.05
2017-07-21T02:34:44.501Z,15.05
2017-07-21T02:34:58.017Z,15.05
2017-07-21T02:35:11.425Z,15.15
2017-07-21T02:35:24.840Z,15.02
2017-07-21T02:35:38.236Z,15.12
2017-07-21T02:35:51.718Z,15.13
2017-07-21T02:36:04.648Z,15.05
2017-07-21T02:36:18.135Z,15.15
2017-07-21T02:36:31.079Z,15.13
2017-07-21T02:36:44.502Z,15.18
2017-07-21T02:36:57.917Z,15.2
2017-07-21T02:37:11.351Z,15.3
2017-07-21T02:37:24.238Z,15.3
2017-07-21T02:37:37.686Z,15.31
2017-07-21T02:37:51.109Z,15.3
2017-07-21T02:38:04.630Z,15.3
2017-07-21T02:38:18.082Z,15.33
2017-07-21T02:38:31.599Z,15.33
2017-07-21T02:38:44.790Z,15.34
2017-07-21T02:38:58.221Z,15.37
2017-07-21T02:39:11.150Z,15.3
2017-07-21T02:39:24.563Z,15.34
2017-07-21T02:39:38.072Z,15.33
2017-07-21T02:39:51.548Z,15.26
2017-07-21T02:40:04.977Z,15.31
2017-07-21T02:40:18.438Z,15.23
2017-07-21T02:40:31.377Z,15.3
2017-07-21T02:40:44.318Z,15.33
2017-07-21T02:40:57.774Z,15.35
2017-07-21T02:41:10.196Z,15.22
2017-07-21T02:41:23.590Z,15.3
2017-07-21T02:41:35.973Z,15.26
2017-07-21T02:41:48.983Z,15.16
2017-07-21T02:42:02.417Z,15.18
2017-07-21T02:42:15.881Z,15.19
2017-07-21T02:42:29.407Z,15.15
2017-07-21T02:42:42.816Z,15.13
2017-07-21T02:42:56.273Z,15.13
2017-07-21T02:43:09.738Z,15.13
2017-07-21T02:43:23.183Z,15.04
2017-07-21T02:43:36.123Z,15.08
2017-07-21T02:43:50.254Z,15.05
2017-07-21T02:44:03.683Z,15.18
2017-07-21T02:44:16.576Z,15.07
2017-07-21T02:44:30.095Z,15.13
2017-07-21T02:44:42.970Z,14.97
2017-07-21T02:44:56.450Z,14.97
2017-07-21T02:45:09.944Z,14.98
2017-07-21T02:45:23.348Z,15.05
2017-07-21T02:45:36.805Z,15.04
2017-07-21T02:45:50.265Z,14.98
2017-07-21T02:46:03.671Z,14.98
2017-07-21T02:46:16.058Z,15.01
2017-07-21T02:46:29.452Z,14.97
2017-07-21T02:46:42.965Z,15.01
2017-07-21T02:46:56.411Z,15.01
2017-07-21T02:47:09.831Z,15
2017-07-21T02:47:23.286Z,15
2017-07-21T02:47:36.198Z,14.93
2017-07-21T02:47:49.109Z,14.94
2017-07-21T02:48:02.550Z,14.98
2017-07-21T02:48:15.448Z,15
2017-07-21T02:48:28.340Z,14.97
2017-07-21T02:48:41.868Z,14.9
2017-07-21T02:48:55.324Z,14.93
2017-07-21T02:49:07.728Z,14.87
2017-07-21T02:49:21.184Z,14.93
2017-07-21T02:49:34.104Z,14.85
2017-07-21T02:49:47.064Z,14.82
2017-07-21T02:50:00.548Z,14.94
2017-07-21T02:50:13.430Z,14.93
2017-07-21T02:50:26.931Z,14.93
2017-07-21T02:50:39.321Z,14.94
2017-07-21T02:50:52.775Z,14.85
2017-07-21T02:51:05.700Z,14.97
2017-07-21T02:51:19.196Z,14.98
2017-07-21T02:51:31.618Z,14.94
2017-07-21T02:51:44.553Z,14.94